createdAt,value
2019-05-11T00:00:15.193Z,85.90
2019-05-11T03:02:18.170Z,92.70
2019-05-11T03:04:47.443Z,93.00
2019-05-11T03:07:16.725Z,93.10
2019-05-11T03:09:46.325Z,93.10
2019-05-11T03:12:16.023Z,93.20
2019-05-11T03:14:45.288Z,93.20
2019-05-11T03:17:21.867Z,93.10
2019-05-11T03:19:51.413Z,93.20
2019-05-11T03:22:20.680Z,93.40
2019-05-11T03:24:49.956Z,93.30
2019-05-11T03:27:19.236Z,93.30
2019-05-11T03:29:48.517Z,93.30
2019-05-11T03:32:17.788Z,93.40
2019-05-11T03:34:47.075Z,93.40
2019-05-11T03:37:16.335Z,93.50
2019-05-11T03:39:45.598Z,93.50
2019-05-11T03:42:15.480Z,93.50
2019-05-11T03:44:45.852Z,93.60
2019-05-11T03:47:15.127Z,93.80
2019-05-11T03:49:44.382Z,93.60
2019-05-11T03:52:13.659Z,93.40
2019-05-11T03:54:42.920Z,93.50
2019-05-11T03:57:12.194Z,93.60
2019-05-11T03:59:41.467Z,94.00
2019-05-11T04:02:10.975Z,93.30
2019-05-11T04:04:40.237Z,93.40
2019-05-11T04:07:09.507Z,93.20
2019-05-11T04:09:38.788Z,93.50
2019-05-11T04:12:08.044Z,93.60
2019-05-11T04:14:37.687Z,93.40
2019-05-11T04:17:06.946Z,93.30
2019-05-11T04:19:36.217Z,93.30
2019-05-11T04:22:05.487Z,93.40
2019-05-11T04:24:34.747Z,93.50
2019-05-11T04:27:04.020Z,93.50
2019-05-11T04:29:33.285Z,93.60
2019-05-11T04:32:02.564Z,93.60
2019-05-11T04:34:31.824Z,93.60
2019-05-11T04:37:01.099Z,93.60
2019-05-11T04:39:30.364Z,93.40
2019-05-11T04:41:59.632Z,93.50
2019-05-11T04:44:29.208Z,93.50
2019-05-11T04:46:58.464Z,93.40
2019-05-11T04:49:27.735Z,93.60
2019-05-11T04:51:57.007Z,93.30
2019-05-11T04:54:26.294Z,93.50
2019-05-11T04:56:55.551Z,93.50
2019-05-11T04:59:24.820Z,93.70
2019-05-11T05:01:54.078Z,94.20
2019-05-11T05:04:23.371Z,93.50
2019-05-11T05:06:59.818Z,93.60
2019-05-11T05:09:23.964Z,93.40
2019-05-11T05:11:58.140Z,93.20
2019-05-11T05:14:27.408Z,93.30
2019-05-11T05:16:56.768Z,93.50
2019-05-11T05:19:26.011Z,93.30
2019-05-11T05:21:55.544Z,93.50
2019-05-11T05:24:24.922Z,93.10
2019-05-11T05:26:54.204Z,93.40
2019-05-11T05:29:23.749Z,93.40
2019-05-11T05:31:53.010Z,93.30
2019-05-11T05:34:22.280Z,93.50
2019-05-11T05:36:51.567Z,93.60
2019-05-11T05:39:20.852Z,93.70
2019-05-11T05:41:57.136Z,93.60
2019-05-11T05:44:21.400Z,93.60
2019-05-11T05:46:50.671Z,93.40
2019-05-11T05:49:20.267Z,93.40
2019-05-11T05:51:49.534Z,93.20
2019-05-11T05:54:19.403Z,93.60
2019-05-11T05:56:48.675Z,93.90
2019-05-11T05:59:17.947Z,93.80
2019-05-11T06:01:47.227Z,93.90
2019-05-11T06:04:16.504Z,93.80
2019-05-11T06:06:45.774Z,93.80
2019-05-11T06:09:15.303Z,93.70
2019-05-11T06:11:44.570Z,93.50
2019-05-11T06:14:13.848Z,93.70
2019-05-11T06:16:45.782Z,93.70
2019-05-11T06:19:15.064Z,93.60
2019-05-11T06:21:44.340Z,93.60
2019-05-11T06:24:13.640Z,93.60
2019-05-11T06:26:42.968Z,93.50
2019-05-11T06:29:12.475Z,93.30
2019-05-11T06:31:41.750Z,93.10
2019-05-11T06:34:11.025Z,93.10
2019-05-11T06:36:40.303Z,93.50
2019-05-11T06:39:09.888Z,93.20
2019-05-11T06:41:39.902Z,93.20
2019-05-11T06:44:09.176Z,93.30
2019-05-11T06:46:38.440Z,93.30
2019-05-11T06:49:07.700Z,93.30
2019-05-11T06:51:40.399Z,93.10
2019-05-11T06:54:07.932Z,93.30
2019-05-11T06:56:37.199Z,93.30
2019-05-11T06:59:06.759Z,93.00
2019-05-11T07:01:36.019Z,93.10
2019-05-11T07:04:05.294Z,93.00
2019-05-11T07:06:34.574Z,93.10
2019-05-11T07:09:05.757Z,93.60
2019-05-11T07:11:35.316Z,92.90
2019-05-11T07:14:19.195Z,93.10
2019-05-11T07:16:35.894Z,93.00
2019-05-11T07:19:05.155Z,93.00
2019-05-11T07:21:34.423Z,92.80
2019-05-11T07:24:03.715Z,92.90
2019-05-11T07:26:32.984Z,93.00
2019-05-11T07:29:02.249Z,92.90
2019-05-11T07:31:31.519Z,92.50
2019-05-11T07:34:00.787Z,92.70
2019-05-11T07:36:30.054Z,92.70
2019-05-11T07:38:59.322Z,92.50
2019-05-11T07:41:28.595Z,92.40
2019-05-11T07:43:59.049Z,92.10
2019-05-11T07:46:29.008Z,92.40
2019-05-11T07:48:58.639Z,92.40
2019-05-11T07:51:28.886Z,92.30
2019-05-11T07:53:58.194Z,92.60
2019-05-11T07:56:28.587Z,92.50
2019-05-11T07:58:58.216Z,92.40
2019-05-11T08:01:28.300Z,92.70
2019-05-11T08:03:58.592Z,92.60
2019-05-11T08:06:28.690Z,92.70
2019-05-11T08:08:58.827Z,92.60
2019-05-11T08:11:31.395Z,92.90
2019-05-11T08:13:59.299Z,92.40
2019-05-11T08:16:28.962Z,92.40
2019-05-11T08:18:58.806Z,92.10
2019-05-11T08:21:28.767Z,92.40
2019-05-11T08:23:58.699Z,92.50
2019-05-11T08:26:28.574Z,93.10
2019-05-11T08:28:58.132Z,92.30
2019-05-11T08:31:28.042Z,92.00
2019-05-11T08:33:58.322Z,92.10
2019-05-11T08:36:28.843Z,92.50
2019-05-11T08:38:58.802Z,92.10
2019-05-11T08:41:28.239Z,92.20
2019-05-11T08:43:58.695Z,92.80
2019-05-11T08:46:29.212Z,92.00
2019-05-11T08:48:59.506Z,92.10
2019-05-11T08:51:31.758Z,92.00
2019-05-11T08:54:01.031Z,92.30
2019-05-11T08:56:30.292Z,91.90
2019-05-11T08:59:00.785Z,91.60
2019-05-11T09:01:31.345Z,92.20
2019-05-11T09:04:00.695Z,91.90
2019-05-11T09:06:30.323Z,91.90
2019-05-11T09:08:59.610Z,91.40
2019-05-11T09:11:29.130Z,91.30
2019-05-11T09:13:58.420Z,91.30
2019-05-11T09:16:29.058Z,91.50
2019-05-11T09:18:58.890Z,90.90
2019-05-11T09:21:29.130Z,91.20
2019-05-11T09:23:58.399Z,90.80
2019-05-11T09:26:28.659Z,90.30
2019-05-11T09:28:59.188Z,90.30
2019-05-11T09:31:28.455Z,90.70
2019-05-11T09:33:58.794Z,91.00
2019-05-11T09:36:28.655Z,90.50
2019-05-11T09:38:58.318Z,90.90
2019-05-11T09:41:29.070Z,91.00
2019-05-11T09:43:58.808Z,91.30
2019-05-11T09:46:28.315Z,91.50
2019-05-11T09:48:59.027Z,91.50
2019-05-11T09:51:28.871Z,91.90
2019-05-11T09:53:59.236Z,92.00
2019-05-11T09:56:28.865Z,91.40
2019-05-11T09:58:58.357Z,90.90
2019-05-11T10:01:29.621Z,91.30
2019-05-11T10:03:59.114Z,91.50
2019-05-11T10:06:28.823Z,91.20
2019-05-11T10:08:58.116Z,91.80
2019-05-11T10:11:28.210Z,91.80
2019-05-11T10:13:57.975Z,91.30
2019-05-11T10:16:28.033Z,91.00
2019-05-11T10:18:59.142Z,91.40
2019-05-11T10:21:29.691Z,91.80
2019-05-11T10:23:58.947Z,91.00
2019-05-11T10:26:28.222Z,91.10
2019-05-11T10:28:58.476Z,91.10
2019-05-11T10:31:30.771Z,90.70
2019-05-11T10:34:00.051Z,90.90
2019-05-11T10:36:29.315Z,90.80
2019-05-11T10:38:58.924Z,90.60
2019-05-11T10:41:28.611Z,90.80
2019-05-11T10:43:58.221Z,91.10
2019-05-11T10:46:28.759Z,90.70
2019-05-11T10:48:59.242Z,90.00
2019-05-11T10:51:28.926Z,90.20
2019-05-11T10:53:58.347Z,90.30
2019-05-11T10:56:28.417Z,91.00
2019-05-11T10:58:58.641Z,90.60
2019-05-11T11:01:28.649Z,90.30
2019-05-11T11:03:58.730Z,90.50
2019-05-11T11:06:28.468Z,90.20
2019-05-11T11:08:58.025Z,90.40
2019-05-11T11:11:27.981Z,90.60
2019-05-11T11:13:58.489Z,90.40
2019-05-11T11:16:36.809Z,90.50
2019-05-11T11:18:58.951Z,90.90
2019-05-11T11:21:28.268Z,90.50
2019-05-11T11:23:58.697Z,90.50
2019-05-11T11:26:28.608Z,90.60
2019-05-11T11:28:58.189Z,90.00
2019-05-11T11:31:28.714Z,89.30
2019-05-11T11:33:58.652Z,88.40
2019-05-11T11:36:28.454Z,89.30
2019-05-11T11:38:58.476Z,89.10
2019-05-11T11:41:29.872Z,88.20
2019-05-11T11:43:58.798Z,86.90
2019-05-11T11:46:28.062Z,86.20
2019-05-11T11:48:58.135Z,86.50
2019-05-11T11:51:28.673Z,87.50
2019-05-11T11:53:58.375Z,86.80
2019-05-11T11:56:28.359Z,86.90
2019-05-11T11:58:58.032Z,86.60
2019-05-11T12:01:28.130Z,87.50
2019-05-11T12:03:58.186Z,87.50
2019-05-11T12:06:28.119Z,85.40
2019-05-11T12:08:58.531Z,85.80
2019-05-11T12:11:28.210Z,84.00
2019-05-11T12:13:58.543Z,84.60
2019-05-11T12:16:28.253Z,85.60
2019-05-11T12:18:57.880Z,85.60
2019-05-11T12:21:27.806Z,86.20
2019-05-11T12:23:58.524Z,86.40
2019-05-11T12:26:28.321Z,85.50
2019-05-11T12:28:57.819Z,86.50
2019-05-11T12:31:29.645Z,86.70
2019-05-11T12:33:58.672Z,87.70
2019-05-11T12:36:28.224Z,88.60
2019-05-11T12:38:58.622Z,87.90
2019-05-11T12:41:28.091Z,88.10
2019-05-11T12:43:57.843Z,89.70
2019-05-11T12:46:27.706Z,88.50
2019-05-11T12:48:59.102Z,88.20
2019-05-11T12:51:28.098Z,89.50
2019-05-11T12:53:57.749Z,89.90
2019-05-11T12:56:27.775Z,89.50
2019-05-11T12:58:58.223Z,89.80
2019-05-11T13:01:29.043Z,88.30
2019-05-11T13:03:58.807Z,89.20
2019-05-11T13:06:28.145Z,89.10
2019-05-11T13:08:58.766Z,88.90
2019-05-11T13:11:28.657Z,89.40
2019-05-11T13:13:58.538Z,89.00
2019-05-11T13:16:28.760Z,89.30
2019-05-11T13:18:58.302Z,90.00
2019-05-11T13:21:28.667Z,89.20
2019-05-11T13:23:58.341Z,89.50
2019-05-11T13:26:28.391Z,89.70
2019-05-11T13:28:58.458Z,89.20
2019-05-11T13:31:27.951Z,89.40
2019-05-11T13:33:58.568Z,89.70
2019-05-11T13:36:28.624Z,90.10
2019-05-11T13:38:58.755Z,88.70
2019-05-11T13:41:28.243Z,88.70
2019-05-11T13:43:57.776Z,87.40
2019-05-11T13:46:28.345Z,87.70
2019-05-11T13:48:58.041Z,87.10
2019-05-11T13:51:28.530Z,86.90
2019-05-11T13:53:58.446Z,85.10
2019-05-11T13:56:28.531Z,85.20
2019-05-11T13:59:01.778Z,85.30
2019-05-11T14:01:31.047Z,86.30
2019-05-11T14:04:00.373Z,85.90
2019-05-11T14:06:29.996Z,86.10
2019-05-11T14:08:59.261Z,84.90
2019-05-11T14:11:28.708Z,86.40
2019-05-11T14:13:59.432Z,86.80
2019-05-11T14:16:28.694Z,86.70
2019-05-11T14:18:57.987Z,86.10
2019-05-11T14:21:28.024Z,86.80
2019-05-11T14:23:58.746Z,87.30
2019-05-11T14:26:28.495Z,85.60
2019-05-11T14:28:58.460Z,85.70
2019-05-11T14:31:28.169Z,84.80
2019-05-11T14:33:58.014Z,85.00
2019-05-11T14:36:28.181Z,83.40
2019-05-11T14:38:57.856Z,83.80
2019-05-11T14:41:28.547Z,82.40
2019-05-11T14:43:58.059Z,82.70
2019-05-11T14:46:27.924Z,82.00
2019-05-11T14:48:58.494Z,82.40
2019-05-11T14:51:28.354Z,82.30
2019-05-11T14:53:59.419Z,81.50
2019-05-11T14:56:28.827Z,81.70
2019-05-11T14:58:58.139Z,82.10
2019-05-11T15:01:28.667Z,82.90
2019-05-11T15:03:58.851Z,81.90
2019-05-11T15:06:28.593Z,81.50
2019-05-11T15:08:58.297Z,83.20
2019-05-11T15:11:28.618Z,83.60
2019-05-11T15:13:57.898Z,84.70
2019-05-11T15:16:27.853Z,84.10
2019-05-11T15:18:58.559Z,85.40
2019-05-11T15:21:28.141Z,86.30
2019-05-11T15:23:58.054Z,85.70
2019-05-11T15:26:27.902Z,85.20
2019-05-11T15:28:58.535Z,87.80
2019-05-11T15:31:27.957Z,86.40
2019-05-11T15:33:57.832Z,86.80
2019-05-11T15:36:28.548Z,87.30
2019-05-11T15:38:59.343Z,87.60
2019-05-11T15:41:28.663Z,87.50
2019-05-11T15:43:58.251Z,88.60
2019-05-11T15:46:28.274Z,89.50
2019-05-11T15:49:03.066Z,89.00
2019-05-11T15:51:29.241Z,89.10
2019-05-11T15:53:58.814Z,88.10
2019-05-11T15:56:28.158Z,88.50
2019-05-11T15:58:57.929Z,88.60
2019-05-11T16:01:28.943Z,89.80
2019-05-11T16:03:59.382Z,89.00
2019-05-11T16:06:28.871Z,89.50
2019-05-11T16:08:58.677Z,88.80
2019-05-11T16:11:28.494Z,88.80
2019-05-11T16:13:58.626Z,87.50
2019-05-11T16:16:28.197Z,87.90
2019-05-11T16:19:10.631Z,87.20
2019-05-11T16:21:28.676Z,87.50
2019-05-11T16:23:58.590Z,87.20
2019-05-11T16:26:28.217Z,87.20
2019-05-11T16:28:58.145Z,87.10
2019-05-11T16:31:28.477Z,87.50
2019-05-11T16:33:58.926Z,87.30
2019-05-11T16:36:29.263Z,86.90
2019-05-11T16:38:58.523Z,86.70
2019-05-11T16:41:29.081Z,87.30
2019-05-11T16:43:59.023Z,87.10
2019-05-11T16:46:28.539Z,87.70
2019-05-11T16:48:58.042Z,87.80
2019-05-11T16:51:28.442Z,88.20
2019-05-11T16:53:58.862Z,87.70
2019-05-11T16:56:28.382Z,89.00
2019-05-11T16:58:58.913Z,88.70
2019-05-11T17:01:28.306Z,89.00
2019-05-11T17:03:57.947Z,89.20
2019-05-11T17:06:28.609Z,88.80
2019-05-11T17:08:58.220Z,89.00
2019-05-11T17:11:28.950Z,88.90
2019-05-11T17:13:58.543Z,89.30
2019-05-11T17:16:28.512Z,89.30
2019-05-11T17:18:58.484Z,88.70
2019-05-11T17:21:29.629Z,89.50
2019-05-11T17:23:59.325Z,90.00
2019-05-11T17:26:28.591Z,90.40
2019-05-11T17:28:58.261Z,89.80
2019-05-11T17:31:27.819Z,89.50
2019-05-11T17:33:58.148Z,89.50
2019-05-11T17:36:27.896Z,90.00
2019-05-11T17:38:58.293Z,90.30
2019-05-11T17:41:28.696Z,90.60
2019-05-11T17:43:58.368Z,90.30
2019-05-11T17:46:28.007Z,90.50
2019-05-11T17:48:58.568Z,90.90
2019-05-11T17:51:28.571Z,90.80
2019-05-11T17:53:59.758Z,90.40
2019-05-11T17:56:29.268Z,90.60
2019-05-11T17:58:58.632Z,90.30
2019-05-11T18:01:27.927Z,90.60
2019-05-11T18:03:58.349Z,90.90
2019-05-11T18:06:27.696Z,90.80
2019-05-11T18:08:58.471Z,90.50
2019-05-11T18:11:29.815Z,90.40
2019-05-11T18:13:58.874Z,90.30
2019-05-11T18:16:29.223Z,90.70
2019-05-11T18:18:58.721Z,90.40
2019-05-11T18:21:28.141Z,90.50
2019-05-11T18:23:57.479Z,90.50
2019-05-11T18:26:28.554Z,90.20
2019-05-11T18:28:58.638Z,90.40
2019-05-11T18:31:28.542Z,90.50
2019-05-11T18:33:58.219Z,90.70
2019-05-11T18:36:29.000Z,90.10
2019-05-11T18:38:58.355Z,90.00
2019-05-11T18:41:28.300Z,89.30
2019-05-11T18:43:58.553Z,89.20
2019-05-11T18:46:28.191Z,89.70
2019-05-11T18:48:57.438Z,89.20
2019-05-11T18:51:26.716Z,89.10
2019-05-11T18:53:58.453Z,88.90
2019-05-11T18:56:28.602Z,88.70
2019-05-11T18:58:58.396Z,88.30
2019-05-11T19:01:28.538Z,89.30
2019-05-11T19:04:00.018Z,88.30
2019-05-11T19:06:28.918Z,88.60
2019-05-11T19:08:58.232Z,88.80
2019-05-11T19:11:28.954Z,88.60
2019-05-11T19:13:58.453Z,88.20
2019-05-11T19:16:28.817Z,88.60
2019-05-11T19:18:58.645Z,89.20
2019-05-11T19:21:28.119Z,89.10
2019-05-11T19:23:58.117Z,88.40
2019-05-11T19:26:27.497Z,88.40
2019-05-11T19:28:57.866Z,88.60
2019-05-11T19:31:28.225Z,88.60
2019-05-11T19:33:58.157Z,89.50
2019-05-11T19:36:27.824Z,88.60
2019-05-11T19:38:58.559Z,88.40
2019-05-11T19:41:27.976Z,89.20
2019-05-11T19:43:57.798Z,89.00
2019-05-11T19:46:28.826Z,90.00
2019-05-11T19:48:58.142Z,90.00
2019-05-11T19:51:29.088Z,89.80
2019-05-11T19:53:58.571Z,90.10
2019-05-11T19:56:28.932Z,90.30
2019-05-11T19:58:58.488Z,90.20
2019-05-11T20:01:28.045Z,90.50
2019-05-11T20:03:57.322Z,90.50
2019-05-11T20:06:28.050Z,90.60
2019-05-11T20:08:58.105Z,90.50
2019-05-11T20:11:28.041Z,90.40
2019-05-11T20:13:59.003Z,90.40
2019-05-11T20:16:28.406Z,90.40
2019-05-11T20:18:57.858Z,91.10
2019-05-11T20:21:29.019Z,91.00
2019-05-11T20:23:58.190Z,90.90
2019-05-11T20:26:28.583Z,91.10
2019-05-11T20:28:58.795Z,91.40
2019-05-11T20:31:28.150Z,91.60
2019-05-11T20:33:58.406Z,91.80
2019-05-11T20:36:27.662Z,91.90
2019-05-11T20:38:56.931Z,92.10
2019-05-11T20:41:27.994Z,92.40
2019-05-11T20:43:58.050Z,92.60
2019-05-11T20:46:27.848Z,92.40
2019-05-11T20:48:57.937Z,92.40
2019-05-11T20:51:34.178Z,92.50
2019-05-11T20:53:58.360Z,92.50
2019-05-11T20:56:28.431Z,92.60
2019-05-11T20:58:59.281Z,92.60
2019-05-11T21:01:29.212Z,92.70
2019-05-11T21:03:58.843Z,92.90
2019-05-11T21:06:29.459Z,93.00
2019-05-11T21:08:59.073Z,93.10
2019-05-11T21:11:28.327Z,93.30
2019-05-11T21:13:58.216Z,93.40
2019-05-11T21:16:27.491Z,93.40
2019-05-11T21:18:57.949Z,93.60
2019-05-11T21:21:27.910Z,93.70
2019-05-11T21:23:58.648Z,93.80
2019-05-11T21:26:28.241Z,93.80
2019-05-11T21:28:58.187Z,93.80
2019-05-11T21:31:29.069Z,94.40
2019-05-11T21:33:58.616Z,94.10
2019-05-11T21:36:28.398Z,94.00
2019-05-11T21:38:58.787Z,94.50
2019-05-11T21:41:30.870Z,94.60
2019-05-11T21:43:59.183Z,94.50
2019-05-11T21:46:28.507Z,94.60
2019-05-11T21:48:58.374Z,94.50
2019-05-11T21:51:28.591Z,94.50
2019-05-11T21:53:58.043Z,94.30
2019-05-11T21:56:28.847Z,94.20
2019-05-11T21:58:58.339Z,93.90
2019-05-11T22:01:28.239Z,94.00
2019-05-11T22:03:59.562Z,94.00
2019-05-11T22:06:30.493Z,94.10
2019-05-11T22:09:00.628Z,94.10
2019-05-11T22:11:31.661Z,94.10
2019-05-11T22:14:00.927Z,94.00
2019-05-11T22:16:30.625Z,93.90
2019-05-11T22:19:00.043Z,93.80
2019-05-11T22:21:29.312Z,93.80
2019-05-11T22:23:58.699Z,93.90
2019-05-11T22:26:28.665Z,94.00
2019-05-11T22:28:58.118Z,94.00
2019-05-11T22:31:28.072Z,93.80
2019-05-11T22:33:58.278Z,93.60
2019-05-11T22:36:28.842Z,93.60
2019-05-11T22:38:58.946Z,93.70
2019-05-11T22:41:28.587Z,93.80
2019-05-11T22:43:58.510Z,93.80
2019-05-11T22:46:28.189Z,94.20
2019-05-11T22:48:58.598Z,94.30
2019-05-11T22:51:28.777Z,94.20
2019-05-11T22:53:59.201Z,94.20
2019-05-11T22:56:28.710Z,94.10
2019-05-11T22:58:58.684Z,94.30
2019-05-11T23:01:29.554Z,94.20
2019-05-11T23:03:59.159Z,94.10
2019-05-11T23:06:28.447Z,94.10
2019-05-11T23:08:58.722Z,94.20
2019-05-11T23:11:29.249Z,94.30
2019-05-11T23:13:58.502Z,94.20
2019-05-11T23:16:28.548Z,94.00
2019-05-11T23:18:58.105Z,94.20
2019-05-11T23:21:30.051Z,94.30
2019-05-11T23:23:58.436Z,94.10
2019-05-11T23:26:28.303Z,94.20
2019-05-11T23:28:58.069Z,94.60
2019-05-11T23:31:28.002Z,94.20
2019-05-11T23:33:58.327Z,94.20
2019-05-11T23:36:28.275Z,94.10
2019-05-11T23:38:58.544Z,94.00
2019-05-11T23:41:28.857Z,93.70
2019-05-11T23:43:58.636Z,93.40
2019-05-11T23:46:28.615Z,93.20
2019-05-11T23:48:58.391Z,93.00
2019-05-11T23:51:28.346Z,92.70
2019-05-11T23:54:18.492Z,92.60
2019-05-11T23:56:48.008Z,92.30
2019-05-11T23:59:18.824Z,92.10
